Time;durP1;ratioP1;P1;durP2;ratioP2;P2;SDS_P1;SDS_P2;PMS_P1;PMS_P2;Temp;Humidity;BMP_temperature;BMP_pressure;BME280_temperature;BME280_humidity;BME280_pressure;Samples;Min_cycle;Max_cycle;Signal;HPM_P1;HPM_P2
2021/06/18 00:00:00;;;;;;;8.63;4.72;;;;;;;;;;5003960;28;20482;-47
2021/06/18 00:02:26;;;;;;;8.15;5.03;;;;;;;;;;5013592;28;20022;-47
2021/06/18 00:04:52;;;;;;;10.55;5.70;;;;;;;;;;5004881;28;20104;-49
2021/06/18 00:07:18;;;;;;;9.88;5.25;;;;;;;;;;5003704;28;20105;-47
2021/06/18 00:09:44;;;;;;;9.43;5.18;;;;;;;;;;5004707;28;20034;-48
2021/06/18 00:12:10;;;;;;;7.22;5.05;;;;;;;;;;5004165;28;20113;-49
2021/06/18 00:14:36;;;;;;;7.80;4.75;;;;;;;;;;5005312;28;20041;-47
2021/06/18 00:17:02;;;;;;;7.53;4.90;;;;;;;;;;5009518;28;20316;-47
2021/06/18 00:19:28;;;;;;;7.35;4.95;;;;;;;;;;5005508;28;20036;-47
2021/06/18 00:21:54;;;;;;;6.28;4.63;;;;;;;;;;5005080;28;20030;-47
2021/06/18 00:24:20;;;;;;;6.85;5.30;;;;;;;;;;5005047;28;20061;-48
2021/06/18 00:26:46;;;;;;;7.75;4.95;;;;;;;;;;5003972;28;20045;-47
2021/06/18 00:29:12;;;;;;;7.78;5.00;;;;;;;;;;5004810;28;20184;-47
2021/06/18 00:31:38;;;;;;;9.98;4.97;;;;;;;;;;5005952;28;20033;-47
2021/06/18 00:34:04;;;;;;;7.25;5.43;;;;;;;;;;5005195;28;20120;-48
2021/06/18 00:36:30;;;;;;;6.38;4.97;;;;;;;;;;5004571;28;20072;-47
2021/06/18 00:38:56;;;;;;;6.32;5.03;;;;;;;;;;5002945;28;20038;-48
2021/06/18 00:41:22;;;;;;;6.32;4.90;;;;;;;;;;5004099;28;20485;-50
2021/06/18 00:43:52;;;;;;;7.20;5.70;;;;;;;;;;5007482;28;20470;-48
2021/06/18 00:46:18;;;;;;;9.35;5.70;;;;;;;;;;5011715;28;20128;-48
2021/06/18 00:48:44;;;;;;;8.70;4.90;;;;;;;;;;5004936;28;20110;-48
2021/06/18 00:51:10;;;;;;;8.95;5.47;;;;;;;;;;5008641;28;20077;-48
2021/06/18 00:53:37;;;;;;;8.05;4.88;;;;;;;;;;5004447;28;20062;-47
2021/06/18 00:56:03;;;;;;;6.90;5.55;;;;;;;;;;5008785;28;20042;-48
2021/06/18 00:58:29;;;;;;;9.45;4.88;;;;;;;;;;5006986;28;20420;-48
2021/06/18 01:00:55;;;;;;;7.70;5.35;;;;;;;;;;5005316;28;20026;-48
2021/06/18 01:03:21;;;;;;;8.23;5.57;;;;;;;;;;5004665;28;20048;-49
2021/06/18 01:05:47;;;;;;;6.43;5.03;;;;;;;;;;5010357;28;20036;-48
2021/06/18 01:08:19;;;;;;;9.63;5.10;;;;;;;;;;5008245;28;20084;-49
2021/06/18 01:11:06;;;;;;;6.03;5.07;;;;;;;;;;5009455;28;20097;-48
2021/06/18 01:13:45;;;;;;;6.85;5.38;;;;;;;;;;5007385;28;20030;-49
2021/06/18 01:16:14;;;;;;;9.52;5.47;;;;;;;;;;5009963;28;20026;-48
2021/06/18 01:18:50;;;;;;;9.80;6.68;;;;;;;;;;5014910;28;20029;-48
2021/06/18 01:21:16;;;;;;;7.75;5.43;;;;;;;;;;5006761;28;20125;-51
2021/06/18 01:23:46;;;;;;;7.43;5.53;;;;;;;;;;5011929;28;20316;-49
2021/06/18 01:26:22;;;;;;;9.90;6.32;;;;;;;;;;5006554;28;20476;-48
2021/06/18 01:28:50;;;;;;;9.55;5.95;;;;;;;;;;5006112;28;20056;-48
2021/06/18 01:31:17;;;;;;;7.30;5.72;;;;;;;;;;5006961;28;20029;-49
2021/06/18 01:33:44;;;;;;;7.50;5.63;;;;;;;;;;5004550;28;20557;-51
2021/06/18 01:36:11;;;;;;;9.45;5.35;;;;;;;;;;5005210;28;20034;-50
2021/06/18 01:38:39;;;;;;;9.32;5.72;;;;;;;;;;5005303;28;20034;-50
2021/06/18 01:41:06;;;;;;;6.80;5.32;;;;;;;;;;5007273;28;20045;-49
2021/06/18 01:43:34;;;;;;;8.43;6.00;;;;;;;;;;5007475;28;20145;-48
2021/06/18 01:46:01;;;;;;;8.13;6.18;;;;;;;;;;5003542;28;20565;-49
2021/06/18 01:48:27;;;;;;;7.50;5.68;;;;;;;;;;5006246;28;20506;-48
2021/06/18 01:50:55;;;;;;;10.70;5.55;;;;;;;;;;5007374;28;20149;-48
2021/06/18 01:53:22;;;;;;;7.88;5.43;;;;;;;;;;5009013;28;20033;-48
2021/06/18 01:55:49;;;;;;;8.45;5.43;;;;;;;;;;5005908;28;20029;-48
2021/06/18 01:58:16;;;;;;;9.07;5.82;;;;;;;;;;5007032;28;20025;-49
2021/06/18 02:00:44;;;;;;;7.05;5.93;;;;;;;;;;5006611;28;20026;-50
2021/06/18 02:03:11;;;;;;;7.00;5.57;;;;;;;;;;5005553;28;20041;-48
2021/06/18 02:05:39;;;;;;;7.13;6.00;;;;;;;;;;5010274;28;20164;-50
2021/06/18 02:08:05;;;;;;;8.35;5.82;;;;;;;;;;5008438;28;20579;-51
2021/06/18 02:10:32;;;;;;;6.00;5.40;;;;;;;;;;5007936;28;20105;-48
2021/06/18 02:12:58;;;;;;;10.00;5.30;;;;;;;;;;5005885;28;20036;-49
2021/06/18 02:15:25;;;;;;;8.50;5.50;;;;;;;;;;5005557;28;20056;-50
2021/06/18 02:17:51;;;;;;;8.68;5.80;;;;;;;;;;5006579;28;20381;-50
2021/06/18 02:20:18;;;;;;;13.30;6.38;;;;;;;;;;5007257;28;20410;-48
2021/06/18 02:22:47;;;;;;;7.10;5.30;;;;;;;;;;5006352;28;20435;-50
2021/06/18 02:25:15;;;;;;;8.73;6.00;;;;;;;;;;5006271;28;20026;-49
2021/06/18 02:27:41;;;;;;;9.13;6.43;;;;;;;;;;5006203;28;20556;-51
2021/06/18 02:30:07;;;;;;;8.60;6.10;;;;;;;;;;5006451;28;20088;-48
2021/06/18 02:32:34;;;;;;;7.28;5.63;;;;;;;;;;5005661;28;20131;-49
2021/06/18 02:35:00;;;;;;;7.57;5.47;;;;;;;;;;5004656;28;20109;-49
2021/06/18 02:37:26;;;;;;;8.23;5.70;;;;;;;;;;5006340;28;20060;-48
2021/06/18 02:39:52;;;;;;;9.55;6.00;;;;;;;;;;5005988;28;20030;-48
2021/06/18 02:42:18;;;;;;;8.45;6.03;;;;;;;;;;5005948;28;20401;-48
2021/06/18 02:44:44;;;;;;;8.48;6.32;;;;;;;;;;5007502;28;20084;-48
2021/06/18 02:47:21;;;;;;;9.80;5.85;;;;;;;;;;5008788;28;20080;-48
2021/06/18 02:49:53;;;;;;;8.60;6.10;;;;;;;;;;5004680;28;20057;-48
2021/06/18 02:52:27;;;;;;;8.27;5.78;;;;;;;;;;5015486;28;20480;-48
2021/06/18 02:54:53;;;;;;;14.32;6.20;;;;;;;;;;5005591;28;20034;-48
2021/06/18 02:57:25;;;;;;;8.35;5.95;;;;;;;;;;5010873;28;20053;-48
2021/06/18 03:00:04;;;;;;;8.80;6.43;;;;;;;;;;5011401;28;20470;-49
2021/06/18 03:02:33;;;;;;;11.60;5.68;;;;;;;;;;5012751;28;20025;-48
2021/06/18 03:05:00;;;;;;;7.55;5.75;;;;;;;;;;5011844;28;20030;-50
2021/06/18 03:07:30;;;;;;;8.02;5.80;;;;;;;;;;5019705;28;20091;-49
2021/06/18 03:09:59;;;;;;;9.05;5.90;;;;;;;;;;5018971;28;20026;-48
2021/06/18 03:12:26;;;;;;;8.80;5.38;;;;;;;;;;5018631;28;20026;-48
2021/06/18 03:14:54;;;;;;;8.52;5.53;;;;;;;;;;5010505;28;20033;-48
2021/06/18 03:17:24;;;;;;;6.88;5.45;;;;;;;;;;5020310;28;20125;-48
2021/06/18 03:19:53;;;;;;;10.27;6.47;;;;;;;;;;5019669;28;20136;-51
2021/06/18 03:22:21;;;;;;;7.60;5.78;;;;;;;;;;5017378;28;20455;-48
2021/06/18 03:24:48;;;;;;;10.02;6.53;;;;;;;;;;5012920;28;20041;-50
2021/06/18 03:27:15;;;;;;;10.75;6.05;;;;;;;;;;5018790;28;20055;-48
2021/06/18 03:29:41;;;;;;;8.07;5.88;;;;;;;;;;5018740;28;20453;-48
2021/06/18 03:32:08;;;;;;;7.53;5.88;;;;;;;;;;5015643;28;20046;-50
2021/06/18 03:34:34;;;;;;;8.38;5.60;;;;;;;;;;5013193;28;20109;-49
2021/06/18 03:37:01;;;;;;;10.65;6.43;;;;;;;;;;5017772;28;20036;-48
2021/06/18 03:39:28;;;;;;;7.85;6.03;;;;;;;;;;5028035;28;20168;-48
2021/06/18 03:41:54;;;;;;;7.22;5.63;;;;;;;;;;5013535;28;20117;-48
2021/06/18 03:44:20;;;;;;;10.25;6.00;;;;;;;;;;5017292;28;20025;-48
2021/06/18 03:46:47;;;;;;;10.48;5.57;;;;;;;;;;5009691;28;20112;-48
2021/06/18 03:49:13;;;;;;;8.57;5.88;;;;;;;;;;5018668;28;20490;-48
2021/06/18 03:51:40;;;;;;;6.18;5.30;;;;;;;;;;5015201;28;20030;-48
2021/06/18 03:54:06;;;;;;;8.43;5.40;;;;;;;;;;5026727;28;20061;-49
2021/06/18 03:56:33;;;;;;;6.63;5.65;;;;;;;;;;5016472;28;20017;-50
2021/06/18 03:58:59;;;;;;;7.55;5.90;;;;;;;;;;5014733;28;20489;-49
2021/06/18 04:01:26;;;;;;;8.27;6.10;;;;;;;;;;5016350;28;20064;-50
2021/06/18 04:03:53;;;;;;;9.35;6.05;;;;;;;;;;5011483;28;20474;-49
2021/06/18 04:06:19;;;;;;;8.65;5.80;;;;;;;;;;5005323;28;20112;-48
2021/06/18 04:08:46;;;;;;;10.52;5.68;;;;;;;;;;5011371;28;20477;-49
2021/06/18 04:11:12;;;;;;;8.20;6.35;;;;;;;;;;5015079;28;20021;-50
2021/06/18 04:13:38;;;;;;;9.13;6.28;;;;;;;;;;5009655;28;20118;-48
2021/06/18 04:16:07;;;;;;;10.30;6.40;;;;;;;;;;5019117;28;20033;-49
2021/06/18 04:18:34;;;;;;;8.85;6.13;;;;;;;;;;5019318;28;20494;-48
2021/06/18 04:21:05;;;;;;;8.20;5.50;;;;;;;;;;5021043;28;20030;-48
2021/06/18 04:23:31;;;;;;;11.57;6.13;;;;;;;;;;5021563;28;20041;-48
2021/06/18 04:25:57;;;;;;;7.18;5.63;;;;;;;;;;5023035;28;20084;-48
2021/06/18 04:28:23;;;;;;;10.73;6.03;;;;;;;;;;5025125;28;20065;-49
2021/06/18 04:30:50;;;;;;;9.23;6.30;;;;;;;;;;5021913;28;20101;-48
2021/06/18 04:33:16;;;;;;;7.10;5.65;;;;;;;;;;5013743;28;20117;-48
2021/06/18 04:35:42;;;;;;;10.90;6.07;;;;;;;;;;5013672;28;20026;-49
2021/06/18 04:38:08;;;;;;;7.90;5.72;;;;;;;;;;5017226;28;20045;-48
2021/06/18 04:40:34;;;;;;;15.93;6.00;;;;;;;;;;5024359;28;20061;-48
2021/06/18 04:43:01;;;;;;;12.57;6.45;;;;;;;;;;5019365;28;20049;-48
2021/06/18 04:45:27;;;;;;;10.10;6.05;;;;;;;;;;5024961;28;20030;-48
2021/06/18 04:47:54;;;;;;;16.70;5.82;;;;;;;;;;5016751;28;20438;-48
2021/06/18 04:50:20;;;;;;;9.02;6.10;;;;;;;;;;5018346;28;20030;-48
2021/06/18 04:52:47;;;;;;;7.80;6.05;;;;;;;;;;5033080;28;20087;-48
2021/06/18 04:55:17;;;;;;;8.05;5.75;;;;;;;;;;5024496;28;20501;-50
2021/06/18 04:57:44;;;;;;;8.75;5.72;;;;;;;;;;5023869;28;20944;-48
2021/06/18 05:00:10;;;;;;;9.30;5.97;;;;;;;;;;5020953;28;20030;-49
2021/06/18 05:02:36;;;;;;;14.52;5.55;;;;;;;;;;5015477;28;20025;-48
2021/06/18 05:05:03;;;;;;;8.25;6.18;;;;;;;;;;5027804;28;20081;-49
2021/06/18 05:07:29;;;;;;;7.75;5.32;;;;;;;;;;5023297;28;20093;-49
2021/06/18 05:09:54;;;;;;;8.82;5.18;;;;;;;;;;5029119;28;20034;-49
2021/06/18 05:12:21;;;;;;;13.32;6.60;;;;;;;;;;5020717;28;20057;-49
2021/06/18 05:14:47;;;;;;;9.15;6.07;;;;;;;;;;5014172;28;20176;-51
2021/06/18 05:17:13;;;;;;;13.82;6.20;;;;;;;;;;5014665;28;20558;-50
2021/06/18 05:19:39;;;;;;;7.72;5.53;;;;;;;;;;5029320;28;20064;-50
2021/06/18 05:22:05;;;;;;;8.30;5.65;;;;;;;;;;5022699;28;20044;-48
2021/06/18 05:24:31;;;;;;;7.72;5.95;;;;;;;;;;5033520;28;20042;-48
2021/06/18 05:26:57;;;;;;;10.23;6.32;;;;;;;;;;5015418;28;20075;-49
2021/06/18 05:29:23;;;;;;;6.80;4.82;;;;;;;;;;5019615;28;20033;-50
2021/06/18 05:31:49;;;;;;;10.60;5.40;;;;;;;;;;5026347;28;20065;-49
2021/06/18 05:34:15;;;;;;;9.57;6.20;;;;;;;;;;5014227;28;20029;-48
2021/06/18 05:36:44;;;;;;;10.38;5.57;;;;;;;;;;5022648;28;20040;-48
2021/06/18 05:39:10;;;;;;;8.18;5.35;;;;;;;;;;5034501;28;20029;-49
2021/06/18 05:41:36;;;;;;;9.38;5.13;;;;;;;;;;5033654;28;20117;-48
2021/06/18 05:44:02;;;;;;;10.23;5.55;;;;;;;;;;5034588;28;20537;-48
2021/06/18 05:46:28;;;;;;;9.23;5.47;;;;;;;;;;5016484;28;20049;-49
2021/06/18 05:48:54;;;;;;;9.52;5.22;;;;;;;;;;5027392;28;20057;-49
2021/06/18 05:51:20;;;;;;;6.85;4.80;;;;;;;;;;5023659;28;20033;-48
2021/06/18 05:53:46;;;;;;;8.75;5.75;;;;;;;;;;5030983;28;20025;-49
2021/06/18 05:56:12;;;;;;;7.50;5.45;;;;;;;;;;5024614;28;20034;-49
2021/06/18 05:58:38;;;;;;;8.38;5.20;;;;;;;;;;5032898;28;20045;-49
2021/06/18 06:01:04;;;;;;;7.65;4.88;;;;;;;;;;5033568;28;20033;-51
2021/06/18 06:03:30;;;;;;;9.13;5.28;;;;;;;;;;5033406;28;20076;-49
2021/06/18 06:05:56;;;;;;;9.77;5.10;;;;;;;;;;5033930;28;20056;-48
2021/06/18 06:08:22;;;;;;;8.70;4.70;;;;;;;;;;5030574;28;20112;-48
2021/06/18 06:10:49;;;;;;;8.85;4.70;;;;;;;;;;5022006;28;20390;-48
2021/06/18 06:13:16;;;;;;;6.75;4.88;;;;;;;;;;5017465;28;20036;-49
2021/06/18 06:15:42;;;;;;;6.22;4.57;;;;;;;;;;5033989;28;20075;-51
2021/06/18 06:18:08;;;;;;;6.82;4.53;;;;;;;;;;5033698;28;20071;-49
2021/06/18 06:20:34;;;;;;;8.85;4.53;;;;;;;;;;5033354;28;20112;-50
2021/06/18 06:23:00;;;;;;;9.15;4.57;;;;;;;;;;5028995;28;20462;-49
2021/06/18 06:25:26;;;;;;;6.90;4.80;;;;;;;;;;5026571;28;20044;-51
2021/06/18 06:27:52;;;;;;;5.72;4.25;;;;;;;;;;5027216;28;20032;-48
2021/06/18 06:30:18;;;;;;;5.03;4.25;;;;;;;;;;5024004;28;20017;-50
2021/06/18 06:32:44;;;;;;;6.22;4.03;;;;;;;;;;5014989;28;20041;-48
2021/06/18 06:35:11;;;;;;;6.00;4.28;;;;;;;;;;5032069;28;20389;-49
2021/06/18 06:37:36;;;;;;;7.72;4.22;;;;;;;;;;5013838;28;20121;-49
2021/06/18 06:40:03;;;;;;;6.85;4.15;;;;;;;;;;5021198;28;20034;-49
2021/06/18 06:42:29;;;;;;;9.45;4.55;;;;;;;;;;5017369;28;20160;-49
2021/06/18 06:44:55;;;;;;;6.10;3.85;;;;;;;;;;5023082;28;20038;-49
2021/06/18 06:47:21;;;;;;;5.05;3.95;;;;;;;;;;5014406;28;20038;-48
2021/06/18 06:49:47;;;;;;;8.55;4.40;;;;;;;;;;5028688;28;20037;-48
2021/06/18 06:52:13;;;;;;;14.93;5.85;;;;;;;;;;5026094;28;20013;-49
2021/06/18 06:54:39;;;;;;;7.60;4.18;;;;;;;;;;5014676;28;20512;-49
2021/06/18 06:57:06;;;;;;;8.10;4.22;;;;;;;;;;5013238;28;20144;-49
2021/06/18 06:59:32;;;;;;;5.13;4.10;;;;;;;;;;5011985;28;20124;-49
2021/06/18 07:01:58;;;;;;;6.68;3.83;;;;;;;;;;5018302;28;20022;-49
2021/06/18 07:04:24;;;;;;;7.40;4.10;;;;;;;;;;5016398;28;20029;-52
2021/06/18 07:06:49;;;;;;;7.10;3.88;;;;;;;;;;5014888;28;20386;-49
2021/06/18 07:09:17;;;;;;;5.45;3.80;;;;;;;;;;5016218;28;20035;-49
2021/06/18 07:11:43;;;;;;;8.07;4.20;;;;;;;;;;5022633;28;20111;-50
2021/06/18 07:14:09;;;;;;;5.10;3.55;;;;;;;;;;5021985;28;20466;-49
2021/06/18 07:16:35;;;;;;;6.15;3.72;;;;;;;;;;5025082;28;20030;-48
2021/06/18 07:19:01;;;;;;;5.78;3.60;;;;;;;;;;5013576;28;20037;-49
2021/06/18 07:21:27;;;;;;;6.90;3.78;;;;;;;;;;5023704;28;20029;-49
2021/06/18 07:23:53;;;;;;;6.07;3.22;;;;;;;;;;5024656;28;20457;-49
2021/06/18 07:26:18;;;;;;;7.25;3.20;;;;;;;;;;5024418;28;20021;-48
2021/06/18 07:28:45;;;;;;;5.18;3.28;;;;;;;;;;5028467;28;20612;-48
2021/06/18 07:31:10;;;;;;;6.68;3.42;;;;;;;;;;5025162;28;20029;-48
2021/06/18 07:33:37;;;;;;;8.10;3.80;;;;;;;;;;5013814;28;20033;-48
2021/06/18 07:36:03;;;;;;;5.25;2.72;;;;;;;;;;5032290;28;20022;-50
2021/06/18 07:38:29;;;;;;;5.90;2.85;;;;;;;;;;5031244;28;20051;-49
2021/06/18 07:40:54;;;;;;;6.30;2.63;;;;;;;;;;5031288;28;20116;-48
2021/06/18 07:43:20;;;;;;;4.50;2.70;;;;;;;;;;5030783;28;20453;-49
2021/06/18 07:45:46;;;;;;;7.72;2.80;;;;;;;;;;5030954;28;20064;-49
2021/06/18 07:48:12;;;;;;;4.60;3.00;;;;;;;;;;5017703;28;20091;-49
2021/06/18 07:50:40;;;;;;;4.15;2.47;;;;;;;;;;5031014;28;20030;-50
2021/06/18 07:53:07;;;;;;;4.65;2.40;;;;;;;;;;5031465;28;20095;-50
2021/06/18 07:55:33;;;;;;;6.28;2.80;;;;;;;;;;5031988;28;20053;-49
2021/06/18 07:57:59;;;;;;;3.85;2.25;;;;;;;;;;5029515;28;20025;-49
2021/06/18 08:00:25;;;;;;;3.10;2.10;;;;;;;;;;5023510;28;20085;-51
2021/06/18 08:02:52;;;;;;;4.82;2.58;;;;;;;;;;5023927;28;21391;-49
2021/06/18 08:05:18;;;;;;;8.23;2.58;;;;;;;;;;5016140;28;20029;-50
2021/06/18 08:07:46;;;;;;;11.23;2.75;;;;;;;;;;5026886;28;20028;-49
2021/06/18 08:10:13;;;;;;;3.33;2.03;;;;;;;;;;5021307;28;20025;-48
2021/06/18 08:12:39;;;;;;;4.35;2.67;;;;;;;;;;5020933;28;20033;-48
2021/06/18 08:15:06;;;;;;;3.17;2.20;;;;;;;;;;5025294;28;20018;-49
2021/06/18 08:17:32;;;;;;;5.70;2.33;;;;;;;;;;5028614;28;20017;-49
2021/06/18 08:19:58;;;;;;;4.28;2.40;;;;;;;;;;5031542;28;20373;-52
2021/06/18 08:22:24;;;;;;;5.90;2.65;;;;;;;;;;5027199;28;20037;-49
2021/06/18 08:24:50;;;;;;;3.47;2.28;;;;;;;;;;5025987;28;20393;-49
2021/06/18 08:27:16;;;;;;;4.78;2.47;;;;;;;;;;5027765;28;20359;-51
2021/06/18 08:29:42;;;;;;;4.18;2.30;;;;;;;;;;5020687;28;20069;-49
2021/06/18 08:32:08;;;;;;;4.93;2.40;;;;;;;;;;5028990;28;20040;-49
2021/06/18 08:34:35;;;;;;;2.72;2.28;;;;;;;;;;5024612;28;20473;-50
2021/06/18 08:37:00;;;;;;;3.25;2.25;;;;;;;;;;5031385;28;20041;-49
2021/06/18 08:39:26;;;;;;;5.47;2.63;;;;;;;;;;5022451;28;20091;-49
2021/06/18 08:41:52;;;;;;;5.35;2.25;;;;;;;;;;5029945;28;20108;-49
2021/06/18 08:44:20;;;;;;;6.85;2.60;;;;;;;;;;5013801;28;20048;-49
2021/06/18 08:46:46;;;;;;;5.63;2.55;;;;;;;;;;5029103;28;20033;-49
2021/06/18 08:49:12;;;;;;;4.82;2.40;;;;;;;;;;5021878;28;20033;-51
2021/06/18 08:51:38;;;;;;;3.45;2.50;;;;;;;;;;5029617;28;20018;-49
2021/06/18 08:54:04;;;;;;;3.30;2.15;;;;;;;;;;5029421;28;20136;-49
2021/06/18 08:56:30;;;;;;;4.82;1.85;;;;;;;;;;5015867;28;20029;-49
2021/06/18 08:58:56;;;;;;;3.72;2.08;;;;;;;;;;5023902;28;20104;-48
2021/06/18 09:01:22;;;;;;;3.67;2.03;;;;;;;;;;5020858;28;20107;-51
2021/06/18 09:03:49;;;;;;;3.00;2.08;;;;;;;;;;5018919;28;20072;-48
2021/06/18 09:06:18;;;;;;;3.75;1.95;;;;;;;;;;5016133;28;20032;-48
2021/06/18 09:08:44;;;;;;;2.83;1.80;;;;;;;;;;5023942;28;20037;-49
2021/06/18 09:11:11;;;;;;;3.88;2.08;;;;;;;;;;5031117;28;20021;-48
2021/06/18 09:13:38;;;;;;;2.22;1.98;;;;;;;;;;5025498;28;20029;-50
2021/06/18 09:16:04;;;;;;;2.85;2.10;;;;;;;;;;5017802;28;20054;-49
2021/06/18 09:18:34;;;;;;;3.83;2.08;;;;;;;;;;5016037;28;20033;-49
2021/06/18 09:21:03;;;;;;;3.58;2.60;;;;;;;;;;5029900;28;20025;-49
2021/06/18 09:23:34;;;;;;;3.63;2.03;;;;;;;;;;5029154;28;20821;-49
2021/06/18 09:26:19;;;;;;;3.30;2.30;;;;;;;;;;5018656;28;20037;-50
2021/06/18 09:29:00;;;;;;;5.20;2.05;;;;;;;;;;5017751;28;20037;-50
2021/06/18 09:31:28;;;;;;;3.75;2.10;;;;;;;;;;5034029;28;20466;-48
2021/06/18 09:33:54;;;;;;;5.38;2.22;;;;;;;;;;5027300;28;20025;-52
2021/06/18 09:36:20;;;;;;;2.90;1.98;;;;;;;;;;5032725;28;20032;-49
2021/06/18 09:38:48;;;;;;;4.40;2.20;;;;;;;;;;5005205;28;20730;-49
2021/06/18 09:41:31;;;;;;;4.57;2.38;;;;;;;;;;5011306;28;20053;-50
2021/06/18 09:43:58;;;;;;;5.03;1.97;;;;;;;;;;5016568;28;20132;-53
2021/06/18 09:46:39;;;;;;;5.13;2.50;;;;;;;;;;5027379;28;20033;-48
2021/06/18 09:49:05;;;;;;;3.63;1.90;;;;;;;;;;5034627;28;20140;-48
2021/06/18 09:51:31;;;;;;;4.18;1.77;;;;;;;;;;5030195;28;20093;-50
2021/06/18 09:53:57;;;;;;;3.03;2.08;;;;;;;;;;5031470;28;20040;-49
2021/06/18 09:56:23;;;;;;;4.65;1.90;;;;;;;;;;5029732;28;20037;-49
2021/06/18 09:58:48;;;;;;;3.22;1.98;;;;;;;;;;5024123;28;20029;-52
2021/06/18 10:01:15;;;;;;;3.47;1.90;;;;;;;;;;5033409;28;20044;-54
2021/06/18 10:04:01;;;;;;;3.50;2.30;;;;;;;;;;5025503;28;20464;-49
2021/06/18 10:06:28;;;;;;;3.60;2.05;;;;;;;;;;5032072;28;20127;-49
2021/06/18 10:08:55;;;;;;;3.40;1.98;;;;;;;;;;5026295;28;20087;-49
2021/06/18 10:11:21;;;;;;;2.60;1.88;;;;;;;;;;5025543;28;20025;-48
2021/06/18 10:13:48;;;;;;;3.67;1.98;;;;;;;;;;5025670;28;20035;-50
2021/06/18 10:16:17;;;;;;;3.90;2.15;;;;;;;;;;5027349;28;20043;-51
2021/06/18 10:18:43;;;;;;;4.07;2.15;;;;;;;;;;5021064;28;20461;-50
2021/06/18 10:21:09;;;;;;;3.83;1.80;;;;;;;;;;5014166;28;20041;-48
2021/06/18 10:23:37;;;;;;;2.95;1.75;;;;;;;;;;5029669;28;20037;-48
2021/06/18 10:26:04;;;;;;;4.78;2.08;;;;;;;;;;5019919;28;20121;-48
2021/06/18 10:28:33;;;;;;;3.70;1.83;;;;;;;;;;5023692;28;20048;-50
2021/06/18 10:31:00;;;;;;;3.25;1.80;;;;;;;;;;5031962;28;20021;-50
2021/06/18 10:33:26;;;;;;;2.45;1.83;;;;;;;;;;5010858;28;20046;-48
2021/06/18 10:35:58;;;;;;;3.63;1.85;;;;;;;;;;5024542;28;20033;-48
2021/06/18 10:38:25;;;;;;;3.35;1.65;;;;;;;;;;5018340;28;20493;-49
2021/06/18 10:40:52;;;;;;;5.50;2.08;;;;;;;;;;5023704;28;20084;-49
2021/06/18 10:43:18;;;;;;;3.97;1.65;;;;;;;;;;5012073;28;20553;-48
2021/06/18 10:45:59;;;;;;;3.53;1.85;;;;;;;;;;5022195;28;20072;-49
2021/06/18 10:48:44;;;;;;;2.97;1.73;;;;;;;;;;5015638;28;20025;-49
2021/06/18 10:51:28;;;;;;;5.40;2.03;;;;;;;;;;5032087;28;20057;-49
2021/06/18 10:53:56;;;;;;;3.75;1.95;;;;;;;;;;5031789;28;20030;-50
2021/06/18 10:56:24;;;;;;;3.35;1.77;;;;;;;;;;5024531;28;20096;-50
2021/06/18 10:59:09;;;;;;;5.90;1.70;;;;;;;;;;5032592;28;20040;-49
2021/06/18 11:01:35;;;;;;;3.33;1.90;;;;;;;;;;5029103;28;20083;-49
2021/06/18 11:04:03;;;;;;;2.55;1.50;;;;;;;;;;5033147;28;20022;-49
2021/06/18 11:06:41;;;;;;;3.42;1.75;;;;;;;;;;5020375;28;20045;-48
2021/06/18 11:09:07;;;;;;;4.22;1.73;;;;;;;;;;5032551;28;20029;-49
2021/06/18 11:11:33;;;;;;;4.97;1.60;;;;;;;;;;5015844;28;20038;-50
2021/06/18 11:14:06;;;;;;;5.72;1.75;;;;;;;;;;5023961;28;20136;-50
2021/06/18 11:16:32;;;;;;;;;;;;;;;;;;5030394;28;20041;-49
2021/06/18 11:19:18;;;;;;;3.53;2.28;;;;;;;;;;5011985;28;19910;-49
2021/06/18 11:21:44;;;;;;;2.55;1.40;;;;;;;;;;5024201;28;20574;-49
2021/06/18 11:24:10;;;;;;;2.25;1.88;;;;;;;;;;5020455;28;20101;-49
2021/06/18 11:26:36;;;;;;;5.63;2.10;;;;;;;;;;5024522;28;20116;-49
2021/06/18 11:29:02;;;;;;;3.45;2.10;;;;;;;;;;5016317;28;20164;-49
2021/06/18 11:31:38;;;;;;;3.95;1.63;;;;;;;;;;5012243;28;20041;-48
2021/06/18 11:34:05;;;;;;;3.88;2.00;;;;;;;;;;5016562;28;20037;-49
2021/06/18 11:36:37;;;;;;;14.13;2.50;;;;;;;;;;5019243;28;20029;-49
2021/06/18 11:39:04;;;;;;;4.17;2.00;;;;;;;;;;5011832;28;20062;-51
2021/06/18 11:41:31;;;;;;;3.28;1.88;;;;;;;;;;5012998;28;21073;-48
2021/06/18 11:43:58;;;;;;;5.22;1.95;;;;;;;;;;5024539;28;20112;-48
2021/06/18 11:46:28;;;;;;;3.67;2.00;;;;;;;;;;5025975;28;20041;-49
2021/06/18 11:48:55;;;;;;;3.63;2.03;;;;;;;;;;5027445;28;20034;-48
2021/06/18 11:51:28;;;;;;;3.10;2.05;;;;;;;;;;5024968;28;20104;-49
2021/06/18 11:53:54;;;;;;;3.58;1.60;;;;;;;;;;5015581;28;20109;-49
2021/06/18 11:56:20;;;;;;;3.63;2.15;;;;;;;;;;5011499;28;20091;-52
2021/06/18 11:58:47;;;;;;;2.58;1.70;;;;;;;;;;5015677;28;20064;-48
2021/06/18 12:01:18;;;;;;;7.03;2.30;;;;;;;;;;5017783;28;20033;-49
2021/06/18 12:03:45;;;;;;;19.85;3.17;;;;;;;;;;5011865;28;20120;-49
2021/06/18 12:06:18;;;;;;;4.88;1.88;;;;;;;;;;5016026;28;20034;-49
2021/06/18 12:08:57;;;;;;;2.83;1.60;;;;;;;;;;5019606;28;20120;-49
2021/06/18 12:11:23;;;;;;;2.47;1.40;;;;;;;;;;5021019;28;20030;-48
2021/06/18 12:13:50;;;;;;;6.75;2.47;;;;;;;;;;5023561;28;20473;-48
2021/06/18 12:16:16;;;;;;;2.38;1.40;;;;;;;;;;5017034;28;20083;-48
2021/06/18 12:18:42;;;;;;;4.85;1.73;;;;;;;;;;5019242;28;20029;-50
2021/06/18 12:21:09;;;;;;;5.30;1.98;;;;;;;;;;5013990;28;20026;-48
2021/06/18 12:23:35;;;;;;;7.68;1.75;;;;;;;;;;5028189;28;20053;-50
2021/06/18 12:26:01;;;;;;;4.50;1.45;;;;;;;;;;5012357;28;20068;-48
2021/06/18 12:28:27;;;;;;;2.05;1.45;;;;;;;;;;5019954;28;20373;-48
2021/06/18 12:30:56;;;;;;;2.75;1.70;;;;;;;;;;5012839;28;20110;-48
2021/06/18 12:33:22;;;;;;;5.25;1.73;;;;;;;;;;5013520;28;20045;-50
2021/06/18 12:35:49;;;;;;;7.95;2.05;;;;;;;;;;5023706;28;20026;-54
2021/06/18 12:38:15;;;;;;;2.88;1.55;;;;;;;;;;5018662;28;20058;-50
2021/06/18 12:40:46;;;;;;;3.85;2.13;;;;;;;;;;5014825;28;20033;-49
2021/06/18 12:43:12;;;;;;;2.65;1.80;;;;;;;;;;5012239;28;20022;-49
2021/06/18 12:45:56;;;;;;;4.85;1.63;;;;;;;;;;5020526;28;20080;-47
2021/06/18 12:48:24;;;;;;;4.57;1.35;;;;;;;;;;5014390;28;20112;-47
2021/06/18 12:50:52;;;;;;;4.28;2.20;;;;;;;;;;5019923;28;20025;-47
2021/06/18 12:53:28;;;;;;;3.72;1.65;;;;;;;;;;5017543;28;20048;-47
2021/06/18 12:55:54;;;;;;;4.57;1.70;;;;;;;;;;5016322;28;20026;-48
2021/06/18 12:58:21;;;;;;;3.17;1.40;;;;;;;;;;5013000;28;20669;-47
2021/06/18 13:00:53;;;;;;;3.08;1.60;;;;;;;;;;5009877;28;20713;-50
2021/06/18 13:03:40;;;;;;;3.92;1.52;;;;;;;;;;5020066;28;20056;-53
2021/06/18 13:06:06;;;;;;;1.33;0.88;;;;;;;;;;5018851;28;20042;-50
2021/06/18 13:08:34;;;;;;;1.55;0.90;;;;;;;;;;5015882;28;20394;-53
2021/06/18 13:11:00;;;;;;;1.45;1.00;;;;;;;;;;5020071;28;20769;-47
2021/06/18 13:13:31;;;;;;;5.35;1.10;;;;;;;;;;5014761;28;20124;-53
2021/06/18 13:16:18;;;;;;;1.73;1.00;;;;;;;;;;5019155;28;20032;-52
2021/06/18 13:18:54;;;;;;;1.80;0.98;;;;;;;;;;5023884;28;20033;-51
2021/06/18 13:21:21;;;;;;;3.15;1.20;;;;;;;;;;5028280;28;21563;-47
2021/06/18 13:23:47;;;;;;;1.55;0.88;;;;;;;;;;5022551;28;20033;-50
2021/06/18 13:26:14;;;;;;;2.25;1.00;;;;;;;;;;5020777;28;20029;-52
2021/06/18 13:28:40;;;;;;;3.58;0.80;;;;;;;;;;5014356;28;20038;-49
2021/06/18 13:31:29;;;;;;;1.58;0.82;;;;;;;;;;5020039;28;20129;-52
2021/06/18 13:33:55;;;;;;;4.53;0.93;;;;;;;;;;5015282;28;20112;-49
2021/06/18 13:36:25;;;;;;;1.80;0.52;;;;;;;;;;5013791;28;20022;-51
2021/06/18 13:38:51;;;;;;;1.15;0.75;;;;;;;;;;5018374;28;20499;-48
2021/06/18 13:41:17;;;;;;;1.95;0.82;;;;;;;;;;5012201;28;20072;-53
2021/06/18 13:43:43;;;;;;;4.95;1.00;;;;;;;;;;5031441;28;20037;-47
2021/06/18 13:46:09;;;;;;;1.60;0.82;;;;;;;;;;5025876;28;20045;-49
2021/06/18 13:48:35;;;;;;;1.38;0.68;;;;;;;;;;5030882;28;20076;-48
2021/06/18 13:51:01;;;;;;;2.55;1.30;;;;;;;;;;5017348;28;20054;-51
2021/06/18 13:53:27;;;;;;;6.60;0.85;;;;;;;;;;5018319;28;20034;-48
2021/06/18 13:55:54;;;;;;;1.77;0.77;;;;;;;;;;5023590;28;20461;-48
2021/06/18 13:58:20;;;;;;;2.45;0.95;;;;;;;;;;5014708;28;20029;-49
2021/06/18 14:00:47;;;;;;;2.03;0.90;;;;;;;;;;5015758;28;20509;-53
2021/06/18 14:03:13;;;;;;;0.98;0.75;;;;;;;;;;5012648;28;20037;-51
2021/06/18 14:05:39;;;;;;;4.25;0.80;;;;;;;;;;5024341;28;20025;-48
2021/06/18 14:08:05;;;;;;;2.30;0.85;;;;;;;;;;5018470;28;20037;-50
2021/06/18 14:10:31;;;;;;;1.90;0.90;;;;;;;;;;5022567;28;20034;-53
2021/06/18 14:12:57;;;;;;;2.28;0.90;;;;;;;;;;5015298;28;20029;-54
2021/06/18 14:15:25;;;;;;;2.53;1.00;;;;;;;;;;5016102;28;20076;-48
2021/06/18 14:17:51;;;;;;;3.72;0.90;;;;;;;;;;5017966;28;20029;-49
2021/06/18 14:20:17;;;;;;;1.15;0.80;;;;;;;;;;5021177;28;20026;-48
2021/06/18 14:22:43;;;;;;;1.92;1.00;;;;;;;;;;5024820;28;20034;-52
2021/06/18 14:25:09;;;;;;;1.00;0.75;;;;;;;;;;5018753;28;20060;-53
2021/06/18 14:27:35;;;;;;;1.30;0.60;;;;;;;;;;5019517;28;20120;-52
2021/06/18 14:30:02;;;;;;;2.95;0.90;;;;;;;;;;5015898;28;20040;-49
2021/06/18 14:32:28;;;;;;;1.33;0.90;;;;;;;;;;5016140;28;20050;-48
2021/06/18 14:34:54;;;;;;;1.23;0.77;;;;;;;;;;5018928;28;20029;-51
2021/06/18 14:37:21;;;;;;;1.42;1.10;;;;;;;;;;5012497;28;20467;-51
2021/06/18 14:39:47;;;;;;;3.05;1.00;;;;;;;;;;5011704;28;20069;-47
2021/06/18 14:42:13;;;;;;;2.35;0.82;;;;;;;;;;5016643;28;20474;-47
2021/06/18 14:44:39;;;;;;;1.90;1.08;;;;;;;;;;5012285;28;20037;-47